createdAt,value
2023-04-19T00:00:54.818Z,12.93
2023-04-19T00:03:24.861Z,11.60
2023-04-19T00:05:54.506Z,12.82
2023-04-19T00:08:21.609Z,13.88
2023-04-19T00:10:48.415Z,12.55
2023-04-19T00:13:15.693Z,14.25
2023-04-19T00:15:42.460Z,11.75
2023-04-19T00:18:09.597Z,13.20
2023-04-19T00:20:36.432Z,13.13
2023-04-19T00:23:03.800Z,11.93
2023-04-19T00:25:32.014Z,12.90
2023-04-19T00:27:59.102Z,14.25
2023-04-19T00:30:26.009Z,13.48
2023-04-19T00:32:53.128Z,11.77
2023-04-19T00:35:20.071Z,11.77
2023-04-19T00:37:47.150Z,12.63
2023-04-19T00:40:13.963Z,12.75
2023-04-19T00:42:41.046Z,13.63
2023-04-19T00:45:08.414Z,15.38
2023-04-19T00:47:36.167Z,14.63
2023-04-19T00:50:04.432Z,14.35
2023-04-19T00:52:32.834Z,18.65
2023-04-19T00:54:59.868Z,20.27
2023-04-19T00:57:27.186Z,17.48
2023-04-19T00:59:54.626Z,16.85
2023-04-19T01:02:22.374Z,16.52
2023-04-19T01:04:49.231Z,15.07
2023-04-19T01:07:16.340Z,15.35
2023-04-19T01:09:46.341Z,15.90
2023-04-19T01:12:13.431Z,15.90
2023-04-19T01:14:40.423Z,17.38
2023-04-19T01:17:08.464Z,16.65
2023-04-19T01:19:36.476Z,19.35
2023-04-19T01:22:04.159Z,15.15
2023-04-19T01:24:31.264Z,16.33
2023-04-19T01:26:58.283Z,14.88
2023-04-19T01:29:25.107Z,20.60
2023-04-19T01:31:53.839Z,15.98
2023-04-19T01:34:20.906Z,14.10
2023-04-19T01:36:47.955Z,14.77
2023-04-19T01:39:14.700Z,16.73
2023-04-19T01:41:41.821Z,17.02
2023-04-19T01:44:08.559Z,16.90
2023-04-19T01:46:36.671Z,15.82
2023-04-19T01:49:03.565Z,16.65
2023-04-19T01:51:30.651Z,14.55
2023-04-19T01:53:58.211Z,14.20
2023-04-19T01:56:26.169Z,13.85
2023-04-19T01:58:52.982Z,14.48
2023-04-19T02:01:20.245Z,12.52
2023-04-19T02:03:47.307Z,12.60
2023-04-19T02:06:14.616Z,13.90
2023-04-19T02:08:41.963Z,12.23
2023-04-19T02:11:10.333Z,14.23
2023-04-19T02:13:37.242Z,13.95
2023-04-19T02:16:06.127Z,12.57
2023-04-19T02:18:33.227Z,12.82
2023-04-19T02:21:00.357Z,12.15
2023-04-19T02:23:27.120Z,13.13
2023-04-19T02:25:54.183Z,13.18
2023-04-19T02:28:20.934Z,12.88
2023-04-19T02:30:48.012Z,10.30
2023-04-19T02:33:15.076Z,10.57
2023-04-19T02:35:42.137Z,12.32
2023-04-19T02:38:08.870Z,14.02
2023-04-19T02:40:35.963Z,11.07
2023-04-19T02:43:04.218Z,12.30
2023-04-19T02:45:31.563Z,12.38
2023-04-19T02:47:59.667Z,13.02
2023-04-19T02:50:27.149Z,12.25
2023-04-19T02:52:53.925Z,14.30
2023-04-19T02:55:21.050Z,12.32
2023-04-19T02:57:47.812Z,14.07
2023-04-19T03:00:15.270Z,11.98
2023-04-19T03:02:46.607Z,13.70
2023-04-19T03:05:13.815Z,12.68
2023-04-19T03:07:42.544Z,13.43
2023-04-19T03:10:11.477Z,15.10
2023-04-19T03:12:38.286Z,16.60
2023-04-19T03:15:06.467Z,13.05
2023-04-19T03:17:33.252Z,11.13
2023-04-19T03:20:00.457Z,13.05
2023-04-19T03:22:27.565Z,12.00
2023-04-19T03:24:54.587Z,10.48
2023-04-19T03:27:21.301Z,13.95
2023-04-19T03:29:49.060Z,11.57
2023-04-19T03:32:15.942Z,10.57
2023-04-19T03:34:43.034Z,13.30
2023-04-19T03:37:09.845Z,13.65
2023-04-19T03:39:36.849Z,11.98
2023-04-19T03:42:03.791Z,13.05
2023-04-19T03:44:34.028Z,10.38
2023-04-19T03:47:00.844Z,13.23
2023-04-19T03:49:27.931Z,13.15
2023-04-19T03:51:54.638Z,13.20
2023-04-19T03:54:21.715Z,11.90
2023-04-19T03:56:48.434Z,12.50
2023-04-19T03:59:15.601Z,12.98
2023-04-19T04:01:42.698Z,13.02
2023-04-19T04:04:10.219Z,11.25
2023-04-19T04:06:37.252Z,15.23
2023-04-19T04:09:04.345Z,12.05
2023-04-19T04:11:31.247Z,10.98
2023-04-19T04:13:58.369Z,11.10
2023-04-19T04:16:25.224Z,11.82
2023-04-19T04:18:52.301Z,13.90
2023-04-19T04:21:19.107Z,10.98
2023-04-19T04:23:47.255Z,11.90
2023-04-19T04:26:14.142Z,10.60
2023-04-19T04:28:41.451Z,13.02
2023-04-19T04:31:08.226Z,14.10
2023-04-19T04:33:35.952Z,11.55
2023-04-19T04:36:02.910Z,12.18
2023-04-19T04:38:29.976Z,13.85
2023-04-19T04:40:56.886Z,11.30
2023-04-19T04:43:25.734Z,11.63
2023-04-19T04:45:55.760Z,13.40
2023-04-19T04:48:22.958Z,11.73
2023-04-19T04:50:49.777Z,9.98
2023-04-19T04:53:16.853Z,11.15
2023-04-19T04:55:43.637Z,10.48
2023-04-19T04:58:10.716Z,11.85
2023-04-19T05:00:37.452Z,11.13
2023-04-19T05:03:04.683Z,11.55
2023-04-19T05:05:31.582Z,9.75
2023-04-19T05:07:59.102Z,9.63
2023-04-19T05:10:25.921Z,12.73
2023-04-19T05:12:52.946Z,11.80
2023-04-19T05:15:19.808Z,10.35
2023-04-19T05:17:46.953Z,12.35
2023-04-19T05:20:14.022Z,12.13
2023-04-19T05:22:41.166Z,13.65
2023-04-19T05:25:09.921Z,9.82
2023-04-19T05:27:36.995Z,9.45
2023-04-19T05:30:05.140Z,11.40
2023-04-19T05:32:32.317Z,10.65
2023-04-19T05:34:59.100Z,11.13
2023-04-19T05:37:26.215Z,11.20
2023-04-19T05:39:53.030Z,10.80
2023-04-19T05:42:20.619Z,10.35
2023-04-19T05:44:47.412Z,11.02
2023-04-19T05:47:14.470Z,11.05
2023-04-19T05:49:42.731Z,10.57
2023-04-19T05:52:10.598Z,9.60
2023-04-19T05:54:37.476Z,11.88
2023-04-19T05:57:04.656Z,10.27
2023-04-19T05:59:31.660Z,10.00
2023-04-19T06:01:59.699Z,11.27
2023-04-19T06:04:27.162Z,10.75
2023-04-19T06:06:54.627Z,10.25
2023-04-19T06:09:21.484Z,9.63
2023-04-19T06:11:51.332Z,10.52
2023-04-19T06:14:19.048Z,10.80
2023-04-19T06:16:46.564Z,9.82
2023-04-19T06:19:13.754Z,10.52
2023-04-19T06:21:40.875Z,10.50
2023-04-19T06:24:07.856Z,10.35
2023-04-19T06:26:35.083Z,9.80
2023-04-19T06:29:02.330Z,11.60
2023-04-19T06:31:29.773Z,9.52
2023-04-19T06:33:56.546Z,8.93
2023-04-19T06:36:23.612Z,12.70
2023-04-19T06:38:50.447Z,9.70
2023-04-19T06:41:17.997Z,9.15
2023-04-19T06:43:45.100Z,10.52
2023-04-19T06:46:14.079Z,7.88
2023-04-19T06:48:41.159Z,11.00
2023-04-19T06:51:08.338Z,8.80
2023-04-19T06:53:35.873Z,9.32
2023-04-19T06:56:06.341Z,9.70
2023-04-19T06:58:34.958Z,8.95
2023-04-19T07:01:04.570Z,9.65
2023-04-19T07:03:31.950Z,9.25
2023-04-19T07:05:59.211Z,9.60
2023-04-19T07:08:34.952Z,11.85
2023-04-19T07:11:05.974Z,7.72
2023-04-19T07:13:32.956Z,8.45
2023-04-19T07:16:04.460Z,8.80
2023-04-19T07:18:31.256Z,9.55
2023-04-19T07:20:58.312Z,9.90
2023-04-19T07:23:25.104Z,9.73
2023-04-19T07:25:52.156Z,9.23
2023-04-19T07:28:18.912Z,8.82
2023-04-19T07:30:46.290Z,11.02
2023-04-19T07:33:13.208Z,9.70
2023-04-19T07:35:40.710Z,10.27
2023-04-19T07:38:07.470Z,9.57
2023-04-19T07:40:34.545Z,9.50
2023-04-19T07:43:01.297Z,12.82
2023-04-19T07:45:30.775Z,9.18
2023-04-19T07:47:57.744Z,8.70
2023-04-19T07:50:26.114Z,12.20
2023-04-19T07:52:53.005Z,12.05
2023-04-19T07:55:20.742Z,9.90
2023-04-19T07:57:48.522Z,9.57
2023-04-19T08:00:16.407Z,9.07
2023-04-19T08:02:46.644Z,8.07
2023-04-19T08:05:20.472Z,8.50
2023-04-19T08:07:47.366Z,6.30
2023-04-19T08:10:14.653Z,6.43
2023-04-19T08:12:53.641Z,7.18
2023-04-19T08:16:15.210Z,7.18
2023-04-19T08:18:15.427Z,8.65
2023-04-19T08:20:42.743Z,6.20
2023-04-19T08:23:20.675Z,6.30
2023-04-19T08:25:51.496Z,6.68
2023-04-19T08:28:18.984Z,8.70
2023-04-19T08:30:46.135Z,9.77
2023-04-19T08:33:12.919Z,9.63
2023-04-19T08:35:41.591Z,10.93
2023-04-19T08:38:08.901Z,12.45
2023-04-19T08:40:36.059Z,11.43
2023-04-19T08:43:07.003Z,9.73
2023-04-19T08:45:34.190Z,13.02
2023-04-19T08:48:02.268Z,12.63
2023-04-19T08:50:36.197Z,11.32
2023-04-19T08:55:59.264Z,11.95
2023-04-19T08:58:41.385Z,11.80
2023-04-19T09:01:30.904Z,11.50
2023-04-19T09:04:16.171Z,13.88
2023-04-19T09:06:48.310Z,12.07
2023-04-19T09:11:52.378Z,11.43
2023-04-19T09:14:20.432Z,12.15
2023-04-19T09:16:47.529Z,14.00
2023-04-19T09:19:24.268Z,12.57
2023-04-19T09:21:54.518Z,12.65
2023-04-19T09:27:13.249Z,13.27
2023-04-19T09:29:40.140Z,11.98
2023-04-19T09:32:07.297Z,11.80
2023-04-19T09:34:34.068Z,12.52
2023-04-19T09:37:21.549Z,12.30
2023-04-19T09:39:59.746Z,11.10
2023-04-19T09:47:46.444Z,11.57
2023-04-19T09:50:22.529Z,12.57
2023-04-19T09:52:50.318Z,10.57
2023-04-19T09:55:26.847Z,10.32
2023-04-19T09:57:55.412Z,11.43
2023-04-19T10:00:22.928Z,11.15
2023-04-19T10:02:55.948Z,10.18
2023-04-19T10:05:24.192Z,9.02
2023-04-19T10:07:53.739Z,8.57
2023-04-19T10:10:27.492Z,10.30
2023-04-19T10:18:16.778Z,9.00
2023-04-19T10:20:57.381Z,9.48
2023-04-19T10:23:24.586Z,9.50
2023-04-19T10:25:55.970Z,7.68
2023-04-19T10:28:23.142Z,9.48
2023-04-19T10:31:03.353Z,10.52
2023-04-19T10:33:37.555Z,10.00
2023-04-19T10:36:05.005Z,10.52
2023-04-19T10:38:44.482Z,8.77
2023-04-19T10:41:18.662Z,8.43
2023-04-19T10:43:55.161Z,8.50
2023-04-19T10:46:22.111Z,10.68
2023-04-19T10:49:05.367Z,8.80
2023-04-19T10:51:39.458Z,9.07
2023-04-19T10:54:10.820Z,10.77
2023-04-19T10:56:39.424Z,7.45
2023-04-19T10:59:12.215Z,6.10
2023-04-19T11:01:45.350Z,7.25
2023-04-19T11:04:13.566Z,6.63
2023-04-19T11:06:52.834Z,7.60
2023-04-19T11:09:34.708Z,8.43
2023-04-19T11:12:11.403Z,6.15
2023-04-19T11:14:42.407Z,25.23
2023-04-19T11:17:32.020Z,9.57
2023-04-19T11:20:03.325Z,9.75
2023-04-19T11:22:36.612Z,8.57
2023-04-19T11:25:07.016Z,8.10
2023-04-19T11:27:34.189Z,8.90
2023-04-19T11:30:05.477Z,8.93
2023-04-19T11:32:32.641Z,13.95
2023-04-19T11:35:08.204Z,40.30
2023-04-19T11:40:05.626Z,46.05
2023-04-19T11:42:32.874Z,23.80
2023-04-19T11:45:00.000Z,34.22
2023-04-19T11:47:27.138Z,22.73
2023-04-19T11:49:57.395Z,29.27
2023-04-19T11:52:25.760Z,19.13
2023-04-19T11:54:53.207Z,13.98
2023-04-19T11:57:46.796Z,18.23
2023-04-19T12:00:14.699Z,13.95
2023-04-19T12:02:43.022Z,14.70
2023-04-19T12:05:14.653Z,8.93
2023-04-19T12:08:04.334Z,13.63
2023-04-19T12:10:31.998Z,12.00
2023-04-19T12:12:58.857Z,10.32
2023-04-19T12:15:41.697Z,8.20
2023-04-19T12:18:08.972Z,7.10
2023-04-19T12:20:36.640Z,5.07
2023-04-19T12:23:04.118Z,6.28
2023-04-19T12:25:31.395Z,6.82
2023-04-19T12:27:58.606Z,6.18
2023-04-19T12:30:26.151Z,5.47
2023-04-19T12:32:55.567Z,6.25
2023-04-19T12:35:23.367Z,7.32
2023-04-19T12:37:50.406Z,5.30
2023-04-19T12:40:17.251Z,6.97
2023-04-19T12:42:44.400Z,8.30
2023-04-19T12:45:12.047Z,8.40
2023-04-19T12:47:40.044Z,6.07
2023-04-19T12:50:08.011Z,7.68
2023-04-19T12:52:35.166Z,9.73
2023-04-19T12:55:02.109Z,6.60
2023-04-19T12:57:29.383Z,6.07
2023-04-19T12:59:56.236Z,6.63
2023-04-19T13:02:23.520Z,8.70
2023-04-19T13:04:51.301Z,5.60
2023-04-19T13:07:18.505Z,7.03
2023-04-19T13:09:45.226Z,7.93
2023-04-19T13:12:12.438Z,4.53
2023-04-19T13:14:39.272Z,6.18
2023-04-19T13:17:06.403Z,4.80
2023-04-19T13:19:33.256Z,8.65
2023-04-19T13:22:00.420Z,6.43
2023-04-19T13:24:27.473Z,6.88
2023-04-19T13:26:54.704Z,7.97
2023-04-19T13:29:21.489Z,6.38
2023-04-19T13:31:49.557Z,4.72
2023-04-19T13:34:16.885Z,6.00
2023-04-19T13:36:44.155Z,5.00
2023-04-19T13:39:11.081Z,6.32
2023-04-19T13:41:38.222Z,6.70
2023-04-19T13:44:05.001Z,8.48
2023-04-19T13:46:32.886Z,5.63
2023-04-19T13:48:59.665Z,7.68
2023-04-19T13:51:31.226Z,6.43
2023-04-19T13:54:05.973Z,6.38
2023-04-19T13:56:33.023Z,8.98
2023-04-19T13:58:59.785Z,6.10
2023-04-19T14:01:27.073Z,6.38
2023-04-19T14:03:54.138Z,7.00
2023-04-19T14:06:21.311Z,6.10
2023-04-19T14:08:50.767Z,8.02
2023-04-19T14:11:18.406Z,7.40
2023-04-19T14:13:45.316Z,7.35
2023-04-19T14:16:12.422Z,6.38
2023-04-19T14:18:39.258Z,8.13
2023-04-19T14:21:06.387Z,6.28
2023-04-19T14:23:33.311Z,6.60
2023-04-19T14:26:00.474Z,6.93
2023-04-19T14:28:27.232Z,6.88
2023-04-19T14:30:54.312Z,5.13
2023-04-19T14:33:21.105Z,6.15
2023-04-19T14:35:48.194Z,5.57
2023-04-19T14:38:14.994Z,6.78
2023-04-19T14:40:42.013Z,6.43
2023-04-19T14:43:08.807Z,5.40
2023-04-19T14:45:36.034Z,5.55
2023-04-19T14:48:03.034Z,5.45
2023-04-19T14:50:30.208Z,7.88
2023-04-19T14:52:56.998Z,7.85
2023-04-19T14:55:26.975Z,4.55
2023-04-19T14:57:54.504Z,7.00
2023-04-19T15:00:21.633Z,6.00
2023-04-19T15:02:48.440Z,6.25
2023-04-19T15:05:16.356Z,4.80
2023-04-19T15:07:43.288Z,6.15
2023-04-19T15:10:10.739Z,6.25
2023-04-19T15:12:37.506Z,5.38
2023-04-19T15:15:05.758Z,8.05
2023-04-19T15:17:32.562Z,6.22
2023-04-19T15:19:59.769Z,6.85
2023-04-19T15:22:26.787Z,7.03
2023-04-19T15:24:53.975Z,7.63
2023-04-19T15:27:20.734Z,7.10
2023-04-19T15:29:48.185Z,7.18
2023-04-19T15:32:14.969Z,8.73
2023-04-19T15:34:42.050Z,7.85
2023-04-19T15:37:09.351Z,8.73
2023-04-19T15:39:36.554Z,7.47
2023-04-19T15:42:03.528Z,8.77
2023-04-19T15:44:30.708Z,8.15
2023-04-19T15:46:57.668Z,8.23
2023-04-19T15:49:24.915Z,8.25
2023-04-19T15:51:51.675Z,8.38
2023-04-19T15:54:18.833Z,9.68
2023-04-19T15:56:45.649Z,8.45
2023-04-19T15:59:12.846Z,10.20
2023-04-19T16:01:39.763Z,8.30
2023-04-19T16:04:07.334Z,11.02
2023-04-19T16:06:34.477Z,9.00
2023-04-19T16:09:01.608Z,8.85
2023-04-19T16:11:29.650Z,9.73
2023-04-19T16:13:56.811Z,11.13
2023-04-19T16:16:26.546Z,8.52
2023-04-19T16:18:53.821Z,8.13
2023-04-19T16:21:20.587Z,10.18
2023-04-19T16:23:47.616Z,9.07
2023-04-19T16:26:14.388Z,9.63
2023-04-19T16:28:41.852Z,10.98
2023-04-19T16:31:08.666Z,9.80
2023-04-19T16:33:35.701Z,9.38
2023-04-19T16:36:02.466Z,9.45
2023-04-19T16:38:29.541Z,9.35
2023-04-19T16:40:56.523Z,9.85
2023-04-19T16:43:23.810Z,8.32
2023-04-19T16:45:50.718Z,8.93
2023-04-19T16:48:17.953Z,9.82
2023-04-19T16:50:44.826Z,9.88
2023-04-19T16:53:11.879Z,9.20
2023-04-19T16:55:38.664Z,11.07
2023-04-19T16:58:05.844Z,9.52
2023-04-19T17:00:32.806Z,10.07
2023-04-19T17:03:00.050Z,9.40
2023-04-19T17:05:26.941Z,9.68
2023-04-19T17:07:56.126Z,8.48
2023-04-19T17:10:23.704Z,10.48
2023-04-19T17:12:50.849Z,10.48
2023-04-19T17:15:18.565Z,15.50
2023-04-19T17:17:45.934Z,9.30
2023-04-19T17:20:13.714Z,10.00
2023-04-19T17:22:41.427Z,11.77
2023-04-19T17:25:08.931Z,13.68
2023-04-19T17:27:36.122Z,10.57
2023-04-19T17:30:03.122Z,11.73
2023-04-19T17:32:30.257Z,11.50
2023-04-19T17:34:57.131Z,11.07
2023-04-19T17:37:24.283Z,10.85
2023-04-19T17:39:51.064Z,10.52
2023-04-19T17:42:18.191Z,10.65
2023-04-19T17:44:44.983Z,13.95
2023-04-19T17:47:12.269Z,11.20
2023-04-19T17:49:38.990Z,10.57
2023-04-19T17:52:06.242Z,13.05
2023-04-19T17:54:33.032Z,12.63
2023-04-19T17:57:02.518Z,12.80
2023-04-19T17:59:29.710Z,15.45
2023-04-19T18:01:57.226Z,15.48
2023-04-19T18:04:24.298Z,12.77
2023-04-19T18:06:51.548Z,17.55
2023-04-19T18:09:19.210Z,15.02
2023-04-19T18:11:47.702Z,16.52
2023-04-19T18:14:15.347Z,16.80
2023-04-19T18:16:42.552Z,17.25
2023-04-19T18:19:09.400Z,17.00
2023-04-19T18:21:37.006Z,17.35
2023-04-19T18:24:03.962Z,15.75
2023-04-19T18:26:40.806Z,17.52
2023-04-19T18:29:07.746Z,15.55
2023-04-19T18:31:34.894Z,17.42
2023-04-19T18:34:02.141Z,17.77
2023-04-19T18:36:29.281Z,15.93
2023-04-19T18:38:56.153Z,16.00
2023-04-19T18:41:23.298Z,16.58
2023-04-19T18:44:12.855Z,17.52
2023-04-19T18:46:37.502Z,19.92
2023-04-19T18:49:04.229Z,20.60
2023-04-19T18:51:31.363Z,17.73
2023-04-19T18:53:58.131Z,18.33
2023-04-19T18:56:48.616Z,18.90
2023-04-19T18:59:12.643Z,19.23
2023-04-19T19:01:40.496Z,21.15
2023-04-19T19:04:28.263Z,26.73
2023-04-19T19:06:54.642Z,20.55
2023-04-19T19:09:23.672Z,20.15
2023-04-19T19:11:56.498Z,19.08
2023-04-19T19:14:23.863Z,23.50
2023-04-19T19:16:52.720Z,19.83
2023-04-19T19:19:22.466Z,19.23
2023-04-19T19:21:50.069Z,21.70
2023-04-19T19:24:16.836Z,20.88
2023-04-19T19:26:44.440Z,20.75
2023-04-19T19:29:11.768Z,20.67
2023-04-19T19:31:38.983Z,22.27
2023-04-19T19:34:23.353Z,21.67
2023-04-19T19:36:52.790Z,18.55
2023-04-19T19:39:19.566Z,21.02
2023-04-19T19:42:03.381Z,19.95
2023-04-19T19:44:31.763Z,19.05
2023-04-19T19:46:58.980Z,20.40
2023-04-19T19:49:26.273Z,22.52
2023-04-19T19:51:58.374Z,20.30
2023-04-19T19:54:26.014Z,20.63
2023-04-19T19:57:35.531Z,19.05
2023-04-19T19:59:39.946Z,20.33
2023-04-19T20:02:07.691Z,19.40
2023-04-19T20:04:38.759Z,23.15
2023-04-19T20:07:32.613Z,19.83
2023-04-19T20:09:53.839Z,19.65
2023-04-19T20:12:21.112Z,18.27
2023-04-19T20:14:47.889Z,19.15
2023-04-19T20:17:15.005Z,19.02
2023-04-19T20:19:42.699Z,19.83
2023-04-19T20:22:09.918Z,18.83
2023-04-19T20:24:38.000Z,18.02
2023-04-19T20:27:05.142Z,19.40
2023-04-19T20:29:31.949Z,19.52
2023-04-19T20:31:59.081Z,17.08
2023-04-19T20:34:25.957Z,18.98
2023-04-19T20:36:53.096Z,21.33
2023-04-19T20:39:20.329Z,20.30
2023-04-19T20:41:48.568Z,19.08
2023-04-19T20:44:17.734Z,20.00
2023-04-19T20:46:44.844Z,21.20
2023-04-19T20:49:11.828Z,20.23
2023-04-19T20:51:38.885Z,20.75
2023-04-19T20:54:05.705Z,20.40
2023-04-19T20:56:32.856Z,20.42
2023-04-19T20:58:59.665Z,19.23
2023-04-19T21:01:26.829Z,20.42
2023-04-19T21:03:53.893Z,20.95
2023-04-19T21:06:23.429Z,22.20
2023-04-19T21:08:50.301Z,20.02
2023-04-19T21:11:17.417Z,18.77
2023-04-19T21:13:44.170Z,23.00
2023-04-19T21:16:11.345Z,20.67
2023-04-19T21:18:38.248Z,19.45
2023-04-19T21:21:05.255Z,19.83
2023-04-19T21:23:32.024Z,24.45
2023-04-19T21:25:59.734Z,21.88
2023-04-19T21:28:26.483Z,24.25
2023-04-19T21:30:53.601Z,24.60
2023-04-19T21:33:20.493Z,21.75
2023-04-19T21:35:47.588Z,23.42
2023-04-19T21:38:14.384Z,22.38
2023-04-19T21:40:41.546Z,22.02
2023-04-19T21:43:08.292Z,22.08
2023-04-19T21:45:35.453Z,20.30
2023-04-19T21:48:02.259Z,23.58
2023-04-19T21:50:29.430Z,23.88
2023-04-19T21:52:56.316Z,21.77
2023-04-19T21:55:23.486Z,24.50
2023-04-19T21:57:50.265Z,26.42
2023-04-19T22:00:18.299Z,22.30
2023-04-19T22:02:45.227Z,22.42
2023-04-19T22:05:13.581Z,22.52
2023-04-19T22:07:40.655Z,23.58
2023-04-19T22:10:08.465Z,23.50
2023-04-19T22:12:38.816Z,25.52
2023-04-19T22:15:10.164Z,23.67
2023-04-19T22:17:38.154Z,26.10
2023-04-19T22:20:09.206Z,27.88
2023-04-19T22:22:35.964Z,24.77
2023-04-19T22:25:03.196Z,23.42
2023-04-19T22:27:30.050Z,26.23
2023-04-19T22:29:57.143Z,24.80
2023-04-19T22:32:24.068Z,26.52
2023-04-19T22:34:51.247Z,26.98
2023-04-19T22:37:18.128Z,26.98
2023-04-19T22:39:45.329Z,26.65
2023-04-19T22:42:12.163Z,25.70
2023-04-19T22:44:39.233Z,29.38
2023-04-19T22:47:06.032Z,28.63
2023-04-19T22:49:33.280Z,29.02
2023-04-19T22:52:00.276Z,24.98
2023-04-19T22:54:27.346Z,28.42
2023-04-19T22:56:54.166Z,29.15
2023-04-19T22:59:21.426Z,27.38
2023-04-19T23:01:48.196Z,25.35
2023-04-19T23:04:15.766Z,29.10
2023-04-19T23:06:42.892Z,29.15
2023-04-19T23:09:14.001Z,26.50
2023-04-19T23:11:41.255Z,26.17
2023-04-19T23:14:10.429Z,29.42
2023-04-19T23:16:38.664Z,27.13
2023-04-19T23:19:07.506Z,33.10
2023-04-19T23:21:34.587Z,24.63
2023-04-19T23:24:01.696Z,27.45
2023-04-19T23:26:29.985Z,29.65
2023-04-19T23:28:57.092Z,28.15
2023-04-19T23:31:23.926Z,29.63
2023-04-19T23:33:51.167Z,30.80
2023-04-19T23:36:17.947Z,27.65
2023-04-19T23:38:45.003Z,27.90
2023-04-19T23:41:14.283Z,29.23
2023-04-19T23:43:41.352Z,28.30
2023-04-19T23:46:08.284Z,26.83
2023-04-19T23:48:35.424Z,27.15
2023-04-19T23:51:02.128Z,27.38
2023-04-19T23:53:29.184Z,29.65
2023-04-19T23:55:56.089Z,26.40
2023-04-19T23:58:23.198Z,30.80
